createdAt,value
2019-05-19T00:01:21.376Z,15.10
2019-05-19T00:03:50.817Z,15.00
2019-05-19T00:06:18.832Z,15.10
2019-05-19T00:08:46.869Z,15.00
2019-05-19T00:11:14.780Z,15.00
2019-05-19T00:13:42.870Z,15.00
2019-05-19T00:16:10.807Z,15.00
2019-05-19T00:18:38.707Z,15.00
2019-05-19T00:21:06.721Z,15.00
2019-05-19T00:23:36.496Z,15.00
2019-05-19T00:26:04.440Z,14.90
2019-05-19T00:28:32.544Z,15.00
2019-05-19T00:31:00.447Z,15.00
2019-05-19T00:33:28.287Z,15.00
2019-05-19T00:35:56.396Z,14.90
2019-05-19T00:38:24.436Z,15.00
2019-05-19T00:40:52.491Z,14.90
2019-05-19T00:43:20.381Z,14.90
2019-05-19T00:45:48.388Z,14.90
2019-05-19T00:48:16.286Z,14.90
2019-05-19T00:50:45.132Z,14.90
2019-05-19T00:53:13.185Z,14.80
2019-05-19T00:55:43.081Z,14.80
2019-05-19T00:58:11.103Z,14.80
2019-05-19T01:00:41.286Z,14.80
2019-05-19T01:03:09.140Z,14.70
2019-05-19T01:05:37.185Z,14.70
2019-05-19T01:08:05.300Z,14.70
2019-05-19T01:10:33.306Z,14.60
2019-05-19T01:13:01.199Z,14.60
2019-05-19T01:15:29.022Z,14.60
2019-05-19T01:17:56.946Z,14.60
2019-05-19T01:20:24.792Z,14.60
2019-05-19T01:22:52.808Z,14.60
2019-05-19T01:25:20.803Z,14.50
2019-05-19T01:27:48.887Z,14.50
2019-05-19T01:30:17.751Z,14.50
2019-05-19T01:32:47.235Z,14.50
2019-05-19T01:35:15.281Z,14.40
2019-05-19T01:37:43.269Z,14.40
2019-05-19T01:40:11.242Z,14.30
2019-05-19T01:42:39.248Z,14.30
2019-05-19T01:45:07.287Z,14.30
2019-05-19T01:47:35.257Z,14.30
2019-05-19T01:50:16.865Z,14.30
2019-05-19T01:52:33.295Z,14.30
2019-05-19T01:55:04.289Z,14.30
2019-05-19T01:57:33.239Z,14.20
2019-05-19T02:00:01.142Z,14.20
2019-05-19T02:02:29.170Z,14.10
2019-05-19T02:04:57.176Z,14.10
2019-05-19T02:07:27.595Z,14.10
2019-05-19T02:09:55.576Z,14.10
2019-05-19T02:12:23.596Z,14.00
2019-05-19T02:14:52.661Z,14.10
2019-05-19T02:17:20.476Z,14.10
2019-05-19T02:19:48.518Z,14.10
2019-05-19T02:22:16.531Z,14.10
2019-05-19T02:24:44.625Z,14.00
2019-05-19T02:27:12.419Z,14.00
2019-05-19T02:29:40.322Z,14.00
2019-05-19T02:32:09.257Z,14.00
2019-05-19T02:34:37.398Z,13.90
2019-05-19T02:37:05.439Z,13.90
2019-05-19T02:39:33.381Z,13.90
2019-05-19T02:42:01.324Z,13.90
2019-05-19T02:44:29.332Z,13.90
2019-05-19T02:46:59.186Z,13.90
2019-05-19T02:49:27.072Z,13.90
2019-05-19T02:51:54.939Z,13.90
2019-05-19T02:54:23.487Z,13.90
2019-05-19T02:56:51.334Z,13.90
2019-05-19T02:59:19.371Z,13.90
2019-05-19T03:02:05.251Z,13.90
2019-05-19T03:04:33.250Z,13.90
2019-05-19T03:07:01.264Z,13.90
2019-05-19T03:09:32.833Z,13.90
2019-05-19T03:12:00.862Z,13.90
2019-05-19T06:59:50.468Z,20.00
2019-05-19T07:02:18.476Z,20.30
2019-05-19T07:04:46.556Z,20.60
2019-05-19T07:07:14.557Z,20.80
2019-05-19T07:09:57.134Z,21.70
2019-05-19T07:12:12.118Z,23.40
2019-05-19T07:14:40.433Z,24.70
2019-05-19T07:17:11.798Z,25.10
2019-05-19T07:19:41.147Z,25.20
2019-05-19T07:22:09.317Z,25.80
2019-05-19T07:24:37.316Z,26.30
2019-05-19T07:27:05.196Z,26.60
2019-05-19T07:29:33.387Z,26.70
2019-05-19T07:32:01.348Z,26.40
2019-05-19T07:34:32.156Z,25.40
2019-05-19T07:37:00.143Z,24.00
2019-05-19T07:39:28.287Z,22.70
2019-05-19T07:41:56.096Z,21.60
2019-05-19T07:44:23.968Z,20.70
2019-05-19T07:46:51.882Z,20.00
2019-05-19T07:49:20.002Z,19.40
2019-05-19T07:51:48.050Z,18.90
2019-05-19T07:54:16.179Z,18.60
2019-05-19T07:56:44.353Z,18.30
2019-05-19T07:59:12.562Z,18.00
2019-05-19T08:01:40.598Z,17.70
2019-05-19T08:04:08.646Z,17.60
2019-05-19T08:06:36.716Z,17.40
2019-05-19T08:09:06.245Z,17.20
2019-05-19T08:11:34.557Z,17.10
2019-05-19T08:14:02.717Z,17.00
2019-05-19T08:16:30.796Z,16.90
2019-05-19T08:18:58.764Z,16.90
2019-05-19T08:21:26.724Z,17.00
2019-05-19T08:24:00.268Z,17.10
2019-05-19T08:26:24.544Z,17.50
2019-05-19T08:28:52.590Z,18.30
2019-05-19T08:31:20.578Z,20.30
2019-05-19T08:33:48.618Z,23.60
2019-05-19T08:36:16.486Z,26.90
2019-05-19T08:38:44.550Z,30.20
2019-05-19T08:41:12.516Z,33.10
2019-05-19T08:43:40.405Z,34.80
2019-05-19T08:46:08.297Z,35.00
2019-05-19T08:48:36.142Z,34.60
2019-05-19T08:51:04.218Z,34.10
2019-05-19T08:53:32.384Z,33.50
2019-05-19T08:56:00.550Z,32.90
2019-05-19T08:58:28.624Z,32.20
2019-05-19T09:00:56.704Z,31.50
2019-05-19T09:03:24.711Z,30.70
2019-05-19T09:05:52.632Z,30.00
2019-05-19T09:08:20.622Z,29.50
2019-05-19T09:10:48.950Z,29.20
2019-05-19T09:13:16.843Z,29.80
2019-05-19T09:15:44.847Z,30.40
2019-05-19T09:18:12.811Z,30.40
2019-05-19T09:20:40.767Z,30.00
2019-05-19T09:23:08.717Z,29.50
2019-05-19T09:25:36.570Z,29.50
2019-05-19T09:28:04.411Z,30.30
2019-05-19T09:30:32.308Z,31.60
2019-05-19T09:33:00.060Z,32.80
2019-05-19T09:35:28.011Z,34.10
2019-05-19T09:37:55.859Z,36.20
2019-05-19T09:40:26.518Z,37.70
2019-05-19T09:42:53.301Z,39.00
2019-05-19T09:45:21.135Z,40.60
2019-05-19T09:47:48.972Z,41.10
2019-05-19T09:50:16.858Z,41.70
2019-05-19T09:52:44.954Z,42.40
2019-05-19T09:55:13.363Z,42.70
2019-05-19T09:57:41.451Z,42.70
2019-05-19T10:00:10.962Z,42.40
2019-05-19T10:02:39.282Z,42.50
2019-05-19T10:05:07.760Z,42.80
2019-05-19T10:07:36.075Z,42.70
2019-05-19T10:10:17.445Z,42.70
2019-05-19T10:12:45.846Z,42.00
2019-05-19T10:15:14.562Z,40.90
2019-05-19T10:17:42.713Z,39.70
2019-05-19T10:20:10.963Z,38.80
2019-05-19T10:22:39.127Z,37.60
2019-05-19T10:25:21.082Z,37.00
2019-05-19T10:27:37.692Z,37.00
2019-05-19T10:30:06.634Z,36.50
2019-05-19T10:32:34.885Z,35.20
2019-05-19T10:35:03.034Z,33.70
2019-05-19T10:37:31.397Z,32.50
2019-05-19T10:39:59.549Z,31.40
2019-05-19T10:42:27.884Z,30.50
2019-05-19T10:44:56.117Z,29.70
2019-05-19T10:47:24.517Z,29.10
2019-05-19T10:49:52.676Z,28.50
2019-05-19T10:52:20.917Z,28.00
2019-05-19T10:54:49.240Z,28.10
2019-05-19T10:57:17.637Z,29.10
2019-05-19T10:59:45.792Z,30.20
2019-05-19T11:02:13.957Z,31.20
2019-05-19T11:04:41.971Z,31.70
2019-05-19T11:07:10.335Z,31.80
2019-05-19T11:09:38.532Z,31.70
2019-05-19T11:12:06.801Z,31.60
2019-05-19T11:14:34.873Z,31.50
2019-05-19T11:17:03.194Z,31.20
2019-05-19T11:19:31.248Z,30.90
2019-05-19T11:21:59.066Z,30.40
2019-05-19T11:24:26.875Z,30.00
2019-05-19T11:26:55.542Z,29.50
2019-05-19T11:29:23.538Z,29.00
2019-05-19T11:31:51.654Z,28.50
2019-05-19T11:34:22.433Z,28.10
2019-05-19T11:36:50.596Z,27.70
2019-05-19T11:39:18.689Z,27.50
2019-05-19T11:41:46.831Z,27.30
2019-05-19T11:44:15.191Z,27.10
2019-05-19T11:46:43.777Z,26.90
2019-05-19T11:49:12.162Z,26.70
2019-05-19T11:51:40.752Z,26.60
2019-05-19T11:54:10.080Z,26.70
2019-05-19T11:56:44.680Z,26.90
2019-05-19T11:59:15.588Z,27.10
2019-05-19T12:01:55.991Z,27.20
2019-05-19T12:07:01.586Z,27.30
2019-05-19T12:09:42.026Z,27.40
2019-05-19T12:12:10.320Z,27.40
2019-05-19T12:14:41.412Z,27.40
2019-05-19T12:17:12.221Z,27.40
2019-05-19T12:19:40.713Z,27.30
2019-05-19T12:22:09.105Z,27.10
2019-05-19T12:24:40.604Z,27.00
2019-05-19T12:27:09.122Z,26.90
2019-05-19T12:29:37.368Z,26.90
2019-05-19T12:32:06.887Z,26.70
2019-05-19T12:34:37.909Z,26.50
2019-05-19T12:37:08.221Z,26.30
2019-05-19T12:39:36.534Z,26.20
2019-05-19T12:42:05.039Z,26.10
2019-05-19T12:44:33.601Z,26.10
2019-05-19T12:47:02.437Z,26.00
2019-05-19T12:49:32.929Z,25.90
2019-05-19T12:52:01.894Z,25.90
2019-05-19T12:54:31.137Z,25.80
2019-05-19T12:57:00.436Z,25.70
2019-05-19T12:59:37.652Z,25.60
2019-05-19T13:02:09.205Z,25.50
2019-05-19T13:04:38.755Z,25.50
2019-05-19T13:07:08.323Z,25.50
2019-05-19T13:09:37.593Z,25.60
2019-05-19T13:12:06.537Z,25.60
2019-05-19T13:14:36.968Z,25.60
2019-05-19T13:17:10.267Z,25.60
2019-05-19T13:19:37.419Z,25.60
2019-05-19T13:22:07.558Z,25.60
2019-05-19T13:24:36.035Z,25.70
2019-05-19T13:27:04.488Z,25.80
2019-05-19T13:29:32.836Z,25.80
2019-05-19T13:32:04.215Z,26.00
2019-05-19T13:34:32.490Z,26.10
2019-05-19T13:37:02.201Z,26.30
2019-05-19T13:39:30.872Z,26.40
2019-05-19T13:41:59.462Z,26.40
2019-05-19T13:44:29.437Z,26.30
2019-05-19T13:46:59.312Z,26.20
2019-05-19T13:49:29.287Z,26.20
2019-05-19T13:51:59.351Z,26.30
2019-05-19T13:54:31.114Z,26.30
2019-05-19T13:57:11.290Z,26.30
2019-05-19T13:59:33.823Z,26.00
2019-05-19T14:02:06.212Z,25.80
2019-05-19T14:04:36.654Z,25.70
2019-05-19T14:07:06.050Z,25.60
2019-05-19T14:09:35.506Z,25.70
2019-05-19T14:12:03.917Z,25.70
2019-05-19T14:14:34.909Z,25.70
2019-05-19T14:17:04.390Z,25.60
2019-05-19T14:19:34.528Z,25.60
2019-05-19T14:22:07.194Z,25.60
2019-05-19T14:24:37.277Z,25.70
2019-05-19T14:27:08.921Z,25.70
2019-05-19T14:29:40.050Z,25.70
2019-05-19T14:32:12.408Z,25.70
2019-05-19T14:34:41.028Z,25.60
2019-05-19T14:37:10.865Z,25.60
2019-05-19T14:39:39.216Z,25.50
2019-05-19T14:42:10.301Z,25.40
2019-05-19T14:44:38.793Z,25.30
2019-05-19T14:47:11.331Z,25.20
2019-05-19T14:49:39.567Z,25.10
2019-05-19T14:52:10.766Z,25.00
2019-05-19T14:54:42.453Z,24.90
2019-05-19T14:57:14.692Z,24.80
2019-05-19T14:59:45.958Z,24.80
2019-05-19T15:02:14.303Z,24.70
2019-05-19T15:04:47.040Z,24.60
2019-05-19T15:07:17.673Z,24.60
2019-05-19T15:09:46.900Z,24.60
2019-05-19T15:12:17.354Z,24.60
2019-05-19T15:14:48.516Z,24.60
2019-05-19T15:17:18.386Z,24.60
2019-05-19T15:19:46.896Z,24.50
2019-05-19T15:22:15.082Z,24.50
2019-05-19T15:24:45.207Z,24.60
2019-05-19T15:27:15.735Z,24.60
2019-05-19T15:29:44.118Z,24.60
2019-05-19T15:32:12.602Z,24.50
2019-05-19T15:34:41.301Z,24.40
2019-05-19T15:37:09.606Z,24.30
2019-05-19T15:39:37.829Z,24.20
2019-05-19T15:42:07.578Z,24.10
2019-05-19T15:44:37.201Z,24.00
2019-05-19T15:47:05.793Z,23.90
2019-05-19T15:49:34.399Z,23.80
2019-05-19T15:52:05.398Z,23.80
2019-05-19T15:54:33.293Z,23.80
2019-05-19T15:57:04.795Z,23.90
2019-05-19T15:59:34.181Z,23.90
2019-05-19T16:02:05.661Z,24.00
2019-05-19T16:04:37.574Z,24.10
2019-05-19T16:07:08.951Z,24.20
2019-05-19T16:09:37.710Z,24.30
2019-05-19T16:12:07.198Z,24.20
2019-05-19T16:14:36.084Z,24.20
2019-05-19T16:17:04.522Z,24.20
2019-05-19T16:19:32.830Z,24.00
2019-05-19T16:22:01.473Z,23.90
2019-05-19T16:24:29.809Z,23.80
2019-05-19T16:26:58.330Z,23.60
2019-05-19T16:29:29.349Z,23.50
2019-05-19T16:31:57.749Z,23.40
2019-05-19T16:34:26.051Z,23.40
2019-05-19T16:36:54.391Z,23.30
2019-05-19T16:39:23.185Z,23.20
2019-05-19T16:41:51.740Z,23.10
2019-05-19T16:44:20.530Z,23.00
2019-05-19T16:46:52.041Z,22.90
2019-05-19T16:49:29.410Z,22.80
2019-05-19T16:52:00.547Z,22.70
2019-05-19T16:54:37.171Z,22.50
2019-05-19T16:57:07.017Z,22.50
2019-05-19T16:59:41.247Z,22.40
2019-05-19T17:02:12.766Z,22.30
2019-05-19T17:04:51.373Z,22.20
2019-05-19T17:07:21.589Z,22.20
2019-05-19T17:09:51.569Z,22.10
2019-05-19T17:12:20.560Z,22.00
2019-05-19T17:14:54.498Z,21.90
2019-05-19T17:17:23.414Z,21.80
2019-05-19T17:19:55.022Z,21.70
2019-05-19T17:22:27.296Z,21.60
2019-05-19T17:24:59.958Z,21.50
2019-05-19T17:27:30.720Z,21.50
2019-05-19T17:29:59.353Z,21.40
2019-05-19T17:32:31.618Z,21.30
2019-05-19T17:35:07.433Z,21.30
2019-05-19T17:37:36.517Z,21.20
2019-05-19T17:40:10.369Z,21.20
2019-05-19T17:42:43.921Z,21.20
2019-05-19T17:45:17.133Z,21.20
2019-05-19T17:47:48.437Z,21.30
2019-05-19T17:50:18.920Z,21.40
2019-05-19T17:52:48.018Z,21.50
2019-05-19T17:55:16.740Z,21.50
2019-05-19T17:57:46.863Z,21.50
2019-05-19T18:00:20.103Z,21.40
2019-05-19T18:02:52.917Z,21.40
2019-05-19T18:05:23.133Z,21.30
2019-05-19T18:07:54.820Z,21.20
2019-05-19T18:10:26.258Z,21.00
2019-05-19T18:12:58.731Z,20.90
2019-05-19T18:15:29.976Z,20.80
2019-05-19T18:18:03.196Z,20.70
2019-05-19T18:20:39.544Z,20.70
2019-05-19T18:23:07.722Z,20.60
2019-05-19T18:25:40.013Z,20.50
2019-05-19T18:28:14.094Z,20.40
2019-05-19T18:30:43.722Z,20.40
2019-05-19T18:33:13.148Z,20.30
2019-05-19T18:35:44.587Z,20.30
2019-05-19T18:38:13.333Z,20.30
2019-05-19T18:40:41.507Z,20.20
2019-05-19T18:43:15.077Z,20.20
2019-05-19T18:45:44.464Z,20.30
2019-05-19T18:48:23.418Z,20.20
2019-05-19T18:50:52.647Z,20.30
2019-05-19T18:53:21.212Z,20.20
2019-05-19T18:55:57.782Z,20.20
2019-05-19T18:58:27.002Z,20.20
2019-05-19T19:00:58.721Z,20.20
2019-05-19T19:03:27.203Z,20.20
2019-05-19T19:05:57.040Z,20.20
2019-05-19T19:08:25.418Z,20.20
2019-05-19T19:11:01.059Z,20.10
2019-05-19T19:13:31.604Z,20.00
2019-05-19T19:16:02.011Z,20.00
2019-05-19T19:18:31.622Z,19.90
2019-05-19T19:21:08.982Z,19.80
2019-05-19T19:23:45.196Z,19.80
2019-05-19T19:26:13.580Z,19.60
2019-05-19T19:28:41.752Z,19.60
2019-05-19T19:34:07.938Z,19.40
2019-05-19T19:36:41.803Z,19.30
2019-05-19T19:39:10.957Z,19.20
2019-05-19T19:41:39.112Z,19.10
2019-05-19T19:44:07.414Z,19.00
2019-05-19T19:46:37.091Z,18.90
2019-05-19T19:49:05.496Z,18.80
2019-05-19T19:51:38.485Z,18.70
2019-05-19T19:54:07.725Z,18.60
2019-05-19T19:56:39.695Z,18.50
2019-05-19T19:59:09.050Z,18.40
2019-05-19T20:01:38.365Z,18.30
2019-05-19T20:04:07.722Z,18.30
2019-05-19T20:06:35.676Z,18.30
2019-05-19T20:09:05.018Z,18.20
2019-05-19T20:11:33.014Z,18.20
2019-05-19T20:14:01.455Z,18.20
2019-05-19T20:16:29.456Z,18.20
2019-05-19T20:18:57.733Z,18.20
2019-05-19T20:21:25.624Z,18.20
2019-05-19T20:23:53.577Z,18.10
2019-05-19T20:26:21.454Z,18.10
2019-05-19T20:28:49.313Z,18.10
2019-05-19T20:31:17.469Z,18.10
2019-05-19T20:33:45.556Z,18.10
2019-05-19T20:36:13.524Z,18.00
2019-05-19T20:38:41.573Z,18.10
2019-05-19T20:41:09.748Z,18.00
2019-05-19T20:43:37.948Z,18.10
2019-05-19T20:46:05.823Z,18.00
2019-05-19T20:48:33.888Z,18.10
2019-05-19T20:51:02.011Z,18.10
2019-05-19T20:53:30.321Z,18.10
2019-05-19T20:55:58.450Z,18.10
2019-05-19T20:58:26.608Z,18.10
2019-05-19T21:00:54.734Z,18.10
2019-05-19T21:03:23.049Z,18.10
2019-05-19T21:05:51.139Z,18.10
2019-05-19T21:08:19.186Z,18.20
2019-05-19T21:10:46.972Z,18.10
2019-05-19T21:13:14.871Z,18.10
2019-05-19T21:15:42.831Z,18.00
2019-05-19T21:18:10.636Z,18.00
2019-05-19T21:20:38.406Z,18.00
2019-05-19T21:23:06.361Z,17.90
2019-05-19T21:25:34.830Z,17.90
2019-05-19T21:28:04.290Z,17.90
2019-05-19T21:30:32.100Z,17.90
2019-05-19T21:33:00.044Z,17.90
2019-05-19T21:35:27.849Z,17.90
2019-05-19T21:37:55.681Z,17.90
2019-05-19T21:40:23.520Z,17.90
2019-05-19T21:42:51.347Z,17.90
2019-05-19T21:45:19.185Z,17.80
2019-05-19T21:47:47.707Z,17.80
2019-05-19T21:50:15.761Z,17.70
2019-05-19T21:52:47.885Z,17.60
2019-05-19T21:55:15.987Z,17.50
2019-05-19T21:57:44.103Z,17.50
2019-05-19T22:00:13.831Z,17.40
2019-05-19T22:02:41.959Z,17.30
2019-05-19T22:05:09.804Z,17.30
2019-05-19T22:07:39.337Z,17.20
2019-05-19T22:10:07.364Z,17.10
2019-05-19T22:12:35.224Z,17.10
2019-05-19T22:15:03.095Z,17.10
2019-05-19T22:17:30.971Z,17.00
2019-05-19T22:19:58.842Z,17.00
2019-05-19T22:22:26.754Z,16.90
2019-05-19T22:24:54.690Z,16.90
2019-05-19T22:27:22.535Z,16.80
2019-05-19T22:29:50.492Z,16.70
2019-05-19T22:32:18.489Z,16.70
2019-05-19T22:34:46.333Z,16.60
2019-05-19T22:37:14.362Z,16.60
2019-05-19T22:39:42.450Z,16.50
2019-05-19T22:42:10.815Z,16.50
2019-05-19T22:44:38.912Z,16.40
2019-05-19T22:47:07.035Z,16.40
2019-05-19T22:49:35.934Z,16.30
2019-05-19T22:52:04.004Z,16.30
2019-05-19T22:54:31.902Z,16.20
2019-05-19T22:56:59.843Z,16.20
2019-05-19T22:59:28.030Z,16.20
2019-05-19T23:01:55.879Z,16.10
2019-05-19T23:04:23.757Z,16.10
2019-05-19T23:06:52.031Z,16.10
2019-05-19T23:09:19.900Z,16.00
2019-05-19T23:11:47.977Z,16.00
2019-05-19T23:14:15.780Z,16.00
2019-05-19T23:16:43.678Z,16.00
2019-05-19T23:19:11.498Z,15.90
2019-05-19T23:21:39.974Z,15.90
2019-05-19T23:24:09.349Z,15.90
2019-05-19T23:26:38.927Z,15.90
2019-05-19T23:29:06.764Z,15.90
2019-05-19T23:31:34.673Z,15.80
2019-05-19T23:34:04.168Z,15.80
2019-05-19T23:36:31.989Z,15.70
2019-05-19T23:39:00.112Z,15.70
2019-05-19T23:41:28.317Z,15.60
2019-05-19T23:43:56.427Z,15.60
2019-05-19T23:46:24.216Z,15.60
2019-05-19T23:48:52.116Z,15.60
2019-05-19T23:51:19.967Z,15.60
2019-05-19T23:53:47.747Z,15.60
2019-05-19T23:56:15.587Z,15.60
2019-05-19T23:58:43.445Z,15.60
